sensor_id;sensor_type;location;lat;lon;timestamp;P1;durP1;ratioP1;P2;durP2;ratioP2
4963;SDS011;2497;47.410;9.740;2023-07-29T00:01:34;7.77;;;3.70;;
4963;SDS011;2497;47.410;9.740;2023-07-29T00:04:01;6.97;;;3.93;;
4963;SDS011;2497;47.410;9.740;2023-07-29T00:06:28;5.10;;;3.50;;
4963;SDS011;2497;47.410;9.740;2023-07-29T00:08:55;9.30;;;3.70;;
4963;SDS011;2497;47.410;9.740;2023-07-29T00:11:22;5.73;;;3.63;;
4963;SDS011;2497;47.410;9.740;2023-07-29T00:13:51;4.20;;;3.00;;
4963;SDS011;2497;47.410;9.740;2023-07-29T00:16:18;11.13;;;4.00;;
4963;SDS011;2497;47.410;9.740;2023-07-29T00:18:48;3.80;;;2.90;;
4963;SDS011;2497;47.410;9.740;2023-07-29T00:21:15;4.60;;;3.30;;
4963;SDS011;2497;47.410;9.740;2023-07-29T00:23:43;5.40;;;3.30;;
4963;SDS011;2497;47.410;9.740;2023-07-29T00:26:11;4.90;;;3.20;;
4963;SDS011;2497;47.410;9.740;2023-07-29T00:28:38;6.50;;;3.50;;
4963;SDS011;2497;47.410;9.740;2023-07-29T00:31:06;6.47;;;3.10;;
4963;SDS011;2497;47.410;9.740;2023-07-29T00:33:34;6.50;;;4.03;;
4963;SDS011;2497;47.410;9.740;2023-07-29T00:36:01;6.17;;;3.50;;
4963;SDS011;2497;47.410;9.740;2023-07-29T00:38:28;5.53;;;3.43;;
4963;SDS011;2497;47.410;9.740;2023-07-29T00:40:55;5.70;;;3.57;;
4963;SDS011;2497;47.410;9.740;2023-07-29T00:43:24;7.50;;;3.77;;
4963;SDS011;2497;47.410;9.740;2023-07-29T00:45:59;8.30;;;3.23;;
4963;SDS011;2497;47.410;9.740;2023-07-29T00:48:28;6.53;;;3.43;;
4963;SDS011;2497;47.410;9.740;2023-07-29T00:50:55;5.43;;;3.50;;
4963;SDS011;2497;47.410;9.740;2023-07-29T00:53:22;5.90;;;3.63;;
4963;SDS011;2497;47.410;9.740;2023-07-29T00:55:49;10.30;;;3.97;;
4963;SDS011;2497;47.410;9.740;2023-07-29T00:58:16;6.67;;;3.97;;
4963;SDS011;2497;47.410;9.740;2023-07-29T01:00:44;4.97;;;3.00;;
4963;SDS011;2497;47.410;9.740;2023-07-29T01:03:11;7.13;;;3.50;;
4963;SDS011;2497;47.410;9.740;2023-07-29T01:05:45;11.70;;;3.57;;
4963;SDS011;2497;47.410;9.740;2023-07-29T01:08:20;6.87;;;4.10;;
4963;SDS011;2497;47.410;9.740;2023-07-29T01:10:57;13.33;;;4.10;;
4963;SDS011;2497;47.410;9.740;2023-07-29T01:13:33;7.23;;;4.00;;
4963;SDS011;2497;47.410;9.740;2023-07-29T01:16:04;8.00;;;4.27;;
4963;SDS011;2497;47.410;9.740;2023-07-29T01:18:36;7.00;;;3.73;;
4963;SDS011;2497;47.410;9.740;2023-07-29T01:21:08;9.67;;;3.97;;
4963;SDS011;2497;47.410;9.740;2023-07-29T01:23:38;7.50;;;3.80;;
4963;SDS011;2497;47.410;9.740;2023-07-29T01:26:05;8.37;;;3.90;;
4963;SDS011;2497;47.410;9.740;2023-07-29T01:28:32;9.73;;;3.80;;
4963;SDS011;2497;47.410;9.740;2023-07-29T01:31:01;6.97;;;3.77;;
4963;SDS011;2497;47.410;9.740;2023-07-29T01:33:32;6.17;;;4.10;;
4963;SDS011;2497;47.410;9.740;2023-07-29T01:36:06;9.60;;;3.90;;
4963;SDS011;2497;47.410;9.740;2023-07-29T01:38:40;7.17;;;4.17;;
4963;SDS011;2497;47.410;9.740;2023-07-29T01:41:09;7.80;;;3.80;;
4963;SDS011;2497;47.410;9.740;2023-07-29T01:43:37;5.70;;;3.87;;
4963;SDS011;2497;47.410;9.740;2023-07-29T01:46:09;7.17;;;3.87;;
4963;SDS011;2497;47.410;9.740;2023-07-29T01:48:37;9.30;;;4.07;;
4963;SDS011;2497;47.410;9.740;2023-07-29T01:51:04;7.30;;;4.13;;
4963;SDS011;2497;47.410;9.740;2023-07-29T01:53:32;7.17;;;3.97;;
4963;SDS011;2497;47.410;9.740;2023-07-29T01:56:01;6.83;;;4.27;;
4963;SDS011;2497;47.410;9.740;2023-07-29T01:58:28;8.10;;;4.40;;
4963;SDS011;2497;47.410;9.740;2023-07-29T02:00:56;5.87;;;4.10;;
4963;SDS011;2497;47.410;9.740;2023-07-29T02:03:23;5.40;;;3.10;;
4963;SDS011;2497;47.410;9.740;2023-07-29T02:05:50;5.00;;;3.37;;
4963;SDS011;2497;47.410;9.740;2023-07-29T02:08:17;6.70;;;3.77;;
4963;SDS011;2497;47.410;9.740;2023-07-29T02:10:44;7.87;;;4.20;;
4963;SDS011;2497;47.410;9.740;2023-07-29T02:13:15;8.37;;;4.30;;
4963;SDS011;2497;47.410;9.740;2023-07-29T02:15:42;5.90;;;3.90;;
4963;SDS011;2497;47.410;9.740;2023-07-29T02:18:09;5.20;;;3.30;;
4963;SDS011;2497;47.410;9.740;2023-07-29T02:20:36;8.07;;;4.27;;
4963;SDS011;2497;47.410;9.740;2023-07-29T02:23:04;7.40;;;4.20;;
4963;SDS011;2497;47.410;9.740;2023-07-29T02:25:31;8.60;;;4.03;;
4963;SDS011;2497;47.410;9.740;2023-07-29T02:28:01;6.30;;;3.80;;
4963;SDS011;2497;47.410;9.740;2023-07-29T02:30:31;7.90;;;4.10;;
4963;SDS011;2497;47.410;9.740;2023-07-29T02:32:58;7.77;;;4.37;;
4963;SDS011;2497;47.410;9.740;2023-07-29T02:35:26;6.87;;;3.70;;
4963;SDS011;2497;47.410;9.740;2023-07-29T02:37:54;8.23;;;4.70;;
4963;SDS011;2497;47.410;9.740;2023-07-29T02:40:21;10.80;;;4.13;;
4963;SDS011;2497;47.410;9.740;2023-07-29T02:42:50;6.67;;;4.07;;
4963;SDS011;2497;47.410;9.740;2023-07-29T02:45:17;22.07;;;4.53;;
4963;SDS011;2497;47.410;9.740;2023-07-29T02:47:45;7.03;;;3.50;;
4963;SDS011;2497;47.410;9.740;2023-07-29T02:50:13;7.37;;;3.90;;
4963;SDS011;2497;47.410;9.740;2023-07-29T02:52:40;7.27;;;4.10;;
4963;SDS011;2497;47.410;9.740;2023-07-29T02:55:17;5.57;;;3.33;;
4963;SDS011;2497;47.410;9.740;2023-07-29T02:57:44;5.53;;;3.50;;
4963;SDS011;2497;47.410;9.740;2023-07-29T03:00:16;6.27;;;3.73;;
4963;SDS011;2497;47.410;9.740;2023-07-29T03:02:43;6.27;;;3.53;;
4963;SDS011;2497;47.410;9.740;2023-07-29T03:05:12;5.70;;;3.80;;
4963;SDS011;2497;47.410;9.740;2023-07-29T03:07:39;6.70;;;4.00;;
4963;SDS011;2497;47.410;9.740;2023-07-29T03:10:06;7.00;;;3.93;;
4963;SDS011;2497;47.410;9.740;2023-07-29T03:12:34;7.17;;;4.67;;
4963;SDS011;2497;47.410;9.740;2023-07-29T03:15:04;8.40;;;4.97;;
4963;SDS011;2497;47.410;9.740;2023-07-29T03:17:31;9.27;;;4.37;;
4963;SDS011;2497;47.410;9.740;2023-07-29T03:19:59;6.07;;;3.70;;
4963;SDS011;2497;47.410;9.740;2023-07-29T03:22:27;8.03;;;4.03;;
4963;SDS011;2497;47.410;9.740;2023-07-29T03:24:54;6.03;;;4.00;;
4963;SDS011;2497;47.410;9.740;2023-07-29T03:27:21;8.63;;;3.60;;
4963;SDS011;2497;47.410;9.740;2023-07-29T03:29:48;7.80;;;3.90;;
4963;SDS011;2497;47.410;9.740;2023-07-29T03:32:15;7.20;;;4.10;;
4963;SDS011;2497;47.410;9.740;2023-07-29T03:34:43;7.67;;;3.90;;
4963;SDS011;2497;47.410;9.740;2023-07-29T03:37:10;6.73;;;3.67;;
4963;SDS011;2497;47.410;9.740;2023-07-29T03:39:38;9.33;;;4.33;;
4963;SDS011;2497;47.410;9.740;2023-07-29T03:42:05;9.10;;;4.57;;
4963;SDS011;2497;47.410;9.740;2023-07-29T03:44:33;7.57;;;4.07;;
4963;SDS011;2497;47.410;9.740;2023-07-29T03:47:00;5.20;;;3.00;;
4963;SDS011;2497;47.410;9.740;2023-07-29T03:49:27;6.60;;;3.70;;
4963;SDS011;2497;47.410;9.740;2023-07-29T03:51:54;9.90;;;4.30;;
4963;SDS011;2497;47.410;9.740;2023-07-29T03:54:21;10.87;;;5.00;;
4963;SDS011;2497;47.410;9.740;2023-07-29T03:56:50;10.33;;;4.53;;
4963;SDS011;2497;47.410;9.740;2023-07-29T03:59:17;5.90;;;3.63;;
4963;SDS011;2497;47.410;9.740;2023-07-29T04:01:44;6.53;;;3.90;;
4963;SDS011;2497;47.410;9.740;2023-07-29T04:04:11;8.10;;;4.27;;
4963;SDS011;2497;47.410;9.740;2023-07-29T04:06:38;10.87;;;5.00;;
4963;SDS011;2497;47.410;9.740;2023-07-29T04:09:05;6.50;;;3.83;;
4963;SDS011;2497;47.410;9.740;2023-07-29T04:11:33;6.97;;;4.63;;
4963;SDS011;2497;47.410;9.740;2023-07-29T04:14:01;6.03;;;3.90;;
4963;SDS011;2497;47.410;9.740;2023-07-29T04:16:28;10.13;;;4.30;;
4963;SDS011;2497;47.410;9.740;2023-07-29T04:18:56;7.63;;;4.03;;
4963;SDS011;2497;47.410;9.740;2023-07-29T04:21:23;9.00;;;4.40;;
4963;SDS011;2497;47.410;9.740;2023-07-29T04:23:50;9.00;;;4.37;;
4963;SDS011;2497;47.410;9.740;2023-07-29T04:26:17;7.70;;;4.53;;
4963;SDS011;2497;47.410;9.740;2023-07-29T04:28:44;6.53;;;4.03;;
4963;SDS011;2497;47.410;9.740;2023-07-29T04:31:13;5.63;;;4.27;;
4963;SDS011;2497;47.410;9.740;2023-07-29T04:33:40;6.87;;;3.90;;
4963;SDS011;2497;47.410;9.740;2023-07-29T04:36:07;8.70;;;4.20;;
4963;SDS011;2497;47.410;9.740;2023-07-29T04:38:36;9.60;;;5.23;;
4963;SDS011;2497;47.410;9.740;2023-07-29T04:41:04;6.93;;;3.97;;
4963;SDS011;2497;47.410;9.740;2023-07-29T04:43:32;6.77;;;4.13;;
4963;SDS011;2497;47.410;9.740;2023-07-29T04:46:05;7.30;;;4.10;;
4963;SDS011;2497;47.410;9.740;2023-07-29T04:48:35;7.40;;;3.90;;
4963;SDS011;2497;47.410;9.740;2023-07-29T04:51:02;7.67;;;3.83;;
4963;SDS011;2497;47.410;9.740;2023-07-29T04:53:32;7.30;;;4.47;;
4963;SDS011;2497;47.410;9.740;2023-07-29T04:56:00;8.63;;;4.83;;
4963;SDS011;2497;47.410;9.740;2023-07-29T04:58:27;6.40;;;4.00;;
4963;SDS011;2497;47.410;9.740;2023-07-29T05:01:00;7.43;;;3.80;;
4963;SDS011;2497;47.410;9.740;2023-07-29T05:03:27;7.57;;;4.40;;
4963;SDS011;2497;47.410;9.740;2023-07-29T05:05:57;5.57;;;3.67;;
4963;SDS011;2497;47.410;9.740;2023-07-29T05:08:25;7.93;;;4.30;;
4963;SDS011;2497;47.410;9.740;2023-07-29T05:10:52;6.50;;;4.13;;
4963;SDS011;2497;47.410;9.740;2023-07-29T05:13:22;8.40;;;4.37;;
4963;SDS011;2497;47.410;9.740;2023-07-29T05:18:24;7.27;;;4.47;;
4963;SDS011;2497;47.410;9.740;2023-07-29T05:20:51;9.13;;;4.00;;
4963;SDS011;2497;47.410;9.740;2023-07-29T05:23:20;5.00;;;4.00;;
4963;SDS011;2497;47.410;9.740;2023-07-29T05:25:47;7.53;;;4.50;;
4963;SDS011;2497;47.410;9.740;2023-07-29T05:28:14;11.33;;;4.60;;
4963;SDS011;2497;47.410;9.740;2023-07-29T05:30:43;7.23;;;4.30;;
4963;SDS011;2497;47.410;9.740;2023-07-29T05:33:10;8.57;;;4.33;;
4963;SDS011;2497;47.410;9.740;2023-07-29T05:35:37;7.77;;;4.37;;
4963;SDS011;2497;47.410;9.740;2023-07-29T05:38:04;6.83;;;4.03;;
4963;SDS011;2497;47.410;9.740;2023-07-29T05:40:34;7.57;;;4.10;;
4963;SDS011;2497;47.410;9.740;2023-07-29T05:43:02;8.13;;;4.00;;
4963;SDS011;2497;47.410;9.740;2023-07-29T05:45:31;6.40;;;4.17;;
4963;SDS011;2497;47.410;9.740;2023-07-29T05:47:58;8.67;;;4.70;;
4963;SDS011;2497;47.410;9.740;2023-07-29T05:50:26;12.03;;;4.53;;
4963;SDS011;2497;47.410;9.740;2023-07-29T05:52:53;7.70;;;4.87;;
4963;SDS011;2497;47.410;9.740;2023-07-29T05:55:20;11.50;;;4.53;;
4963;SDS011;2497;47.410;9.740;2023-07-29T05:57:49;8.07;;;4.60;;
4963;SDS011;2497;47.410;9.740;2023-07-29T06:00:16;8.50;;;4.23;;
4963;SDS011;2497;47.410;9.740;2023-07-29T06:02:44;12.07;;;4.60;;
4963;SDS011;2497;47.410;9.740;2023-07-29T06:05:11;7.03;;;4.13;;
4963;SDS011;2497;47.410;9.740;2023-07-29T06:07:40;7.07;;;3.70;;
4963;SDS011;2497;47.410;9.740;2023-07-29T06:10:10;8.80;;;4.50;;
4963;SDS011;2497;47.410;9.740;2023-07-29T06:12:38;9.17;;;4.33;;
4963;SDS011;2497;47.410;9.740;2023-07-29T06:15:10;5.97;;;3.60;;
4963;SDS011;2497;47.410;9.740;2023-07-29T06:17:39;7.97;;;4.60;;
4963;SDS011;2497;47.410;9.740;2023-07-29T06:20:06;8.83;;;4.13;;
4963;SDS011;2497;47.410;9.740;2023-07-29T06:22:34;5.27;;;3.60;;
4963;SDS011;2497;47.410;9.740;2023-07-29T06:25:01;6.60;;;4.10;;
4963;SDS011;2497;47.410;9.740;2023-07-29T06:27:28;5.87;;;3.57;;
4963;SDS011;2497;47.410;9.740;2023-07-29T06:29:55;5.80;;;4.10;;
4963;SDS011;2497;47.410;9.740;2023-07-29T06:32:24;10.93;;;4.60;;
4963;SDS011;2497;47.410;9.740;2023-07-29T06:34:51;6.13;;;3.80;;
4963;SDS011;2497;47.410;9.740;2023-07-29T06:37:19;6.47;;;4.00;;
4963;SDS011;2497;47.410;9.740;2023-07-29T06:39:47;4.57;;;3.63;;
4963;SDS011;2497;47.410;9.740;2023-07-29T06:42:14;6.57;;;4.27;;
4963;SDS011;2497;47.410;9.740;2023-07-29T06:44:41;7.20;;;3.80;;
4963;SDS011;2497;47.410;9.740;2023-07-29T06:47:10;12.73;;;4.50;;
4963;SDS011;2497;47.410;9.740;2023-07-29T06:49:39;6.53;;;4.27;;
4963;SDS011;2497;47.410;9.740;2023-07-29T06:52:06;9.37;;;5.10;;
4963;SDS011;2497;47.410;9.740;2023-07-29T06:54:34;7.20;;;4.50;;
4963;SDS011;2497;47.410;9.740;2023-07-29T06:57:01;8.63;;;4.77;;
4963;SDS011;2497;47.410;9.740;2023-07-29T06:59:28;13.07;;;4.93;;
4963;SDS011;2497;47.410;9.740;2023-07-29T07:01:55;9.30;;;5.10;;
4963;SDS011;2497;47.410;9.740;2023-07-29T07:04:22;7.50;;;4.57;;
4963;SDS011;2497;47.410;9.740;2023-07-29T07:06:51;7.23;;;3.87;;
4963;SDS011;2497;47.410;9.740;2023-07-29T07:09:19;6.17;;;3.60;;
4963;SDS011;2497;47.410;9.740;2023-07-29T07:11:46;10.00;;;4.73;;
4963;SDS011;2497;47.410;9.740;2023-07-29T07:14:13;7.67;;;4.03;;
4963;SDS011;2497;47.410;9.740;2023-07-29T07:16:40;5.30;;;3.80;;
4963;SDS011;2497;47.410;9.740;2023-07-29T07:19:07;5.13;;;3.30;;
4963;SDS011;2497;47.410;9.740;2023-07-29T07:21:34;6.10;;;3.73;;
4963;SDS011;2497;47.410;9.740;2023-07-29T07:24:04;8.37;;;4.60;;
4963;SDS011;2497;47.410;9.740;2023-07-29T07:26:31;6.40;;;3.90;;
4963;SDS011;2497;47.410;9.740;2023-07-29T07:29:00;10.10;;;3.90;;
4963;SDS011;2497;47.410;9.740;2023-07-29T07:31:27;4.70;;;3.50;;
4963;SDS011;2497;47.410;9.740;2023-07-29T07:33:54;6.83;;;3.67;;
4963;SDS011;2497;47.410;9.740;2023-07-29T07:36:21;5.33;;;3.47;;
4963;SDS011;2497;47.410;9.740;2023-07-29T07:38:48;6.37;;;3.47;;
4963;SDS011;2497;47.410;9.740;2023-07-29T07:41:17;6.37;;;3.93;;
4963;SDS011;2497;47.410;9.740;2023-07-29T07:43:44;5.33;;;3.20;;
4963;SDS011;2497;47.410;9.740;2023-07-29T07:46:11;6.30;;;3.80;;
4963;SDS011;2497;47.410;9.740;2023-07-29T07:48:40;7.40;;;3.90;;
4963;SDS011;2497;47.410;9.740;2023-07-29T07:51:10;7.43;;;3.83;;
4963;SDS011;2497;47.410;9.740;2023-07-29T07:53:38;6.57;;;3.53;;
4963;SDS011;2497;47.410;9.740;2023-07-29T07:56:05;7.23;;;3.80;;
4963;SDS011;2497;47.410;9.740;2023-07-29T07:58:34;6.83;;;3.73;;
4963;SDS011;2497;47.410;9.740;2023-07-29T08:01:02;9.13;;;4.87;;
4963;SDS011;2497;47.410;9.740;2023-07-29T08:03:30;9.70;;;4.30;;
4963;SDS011;2497;47.410;9.740;2023-07-29T08:05:57;8.90;;;3.60;;
4963;SDS011;2497;47.410;9.740;2023-07-29T08:08:25;5.70;;;3.37;;
4963;SDS011;2497;47.410;9.740;2023-07-29T08:10:52;10.33;;;4.10;;
4963;SDS011;2497;47.410;9.740;2023-07-29T08:13:20;6.03;;;3.10;;
4963;SDS011;2497;47.410;9.740;2023-07-29T08:15:49;4.40;;;3.33;;
4963;SDS011;2497;47.410;9.740;2023-07-29T08:18:16;8.20;;;4.10;;
4963;SDS011;2497;47.410;9.740;2023-07-29T08:20:51;5.30;;;3.50;;
4963;SDS011;2497;47.410;9.740;2023-07-29T08:23:20;9.13;;;3.27;;
4963;SDS011;2497;47.410;9.740;2023-07-29T08:25:50;5.67;;;4.10;;
4963;SDS011;2497;47.410;9.740;2023-07-29T08:28:19;6.03;;;3.53;;
4963;SDS011;2497;47.410;9.740;2023-07-29T08:30:46;6.13;;;3.27;;
4963;SDS011;2497;47.410;9.740;2023-07-29T08:33:14;7.40;;;3.40;;
4963;SDS011;2497;47.410;9.740;2023-07-29T08:35:42;4.80;;;3.27;;
4963;SDS011;2497;47.410;9.740;2023-07-29T08:38:09;5.80;;;3.17;;
4963;SDS011;2497;47.410;9.740;2023-07-29T08:40:40;4.27;;;2.80;;
4963;SDS011;2497;47.410;9.740;2023-07-29T08:43:13;9.03;;;4.00;;
4963;SDS011;2497;47.410;9.740;2023-07-29T08:45:43;6.30;;;4.20;;
4963;SDS011;2497;47.410;9.740;2023-07-29T08:48:11;5.80;;;3.20;;
4963;SDS011;2497;47.410;9.740;2023-07-29T08:50:43;6.13;;;3.50;;
4963;SDS011;2497;47.410;9.740;2023-07-29T08:53:11;5.87;;;3.63;;
4963;SDS011;2497;47.410;9.740;2023-07-29T08:55:39;4.87;;;3.37;;
4963;SDS011;2497;47.410;9.740;2023-07-29T08:58:07;7.43;;;4.17;;
4963;SDS011;2497;47.410;9.740;2023-07-29T09:00:34;8.07;;;3.30;;
4963;SDS011;2497;47.410;9.740;2023-07-29T09:03:02;5.77;;;3.43;;
4963;SDS011;2497;47.410;9.740;2023-07-29T09:05:32;6.13;;;3.13;;
4963;SDS011;2497;47.410;9.740;2023-07-29T09:08:01;4.53;;;3.20;;
4963;SDS011;2497;47.410;9.740;2023-07-29T09:10:29;5.70;;;3.17;;
4963;SDS011;2497;47.410;9.740;2023-07-29T09:12:56;6.33;;;3.47;;
4963;SDS011;2497;47.410;9.740;2023-07-29T09:15:27;5.37;;;3.60;;
4963;SDS011;2497;47.410;9.740;2023-07-29T09:17:55;4.80;;;3.53;;
4963;SDS011;2497;47.410;9.740;2023-07-29T09:20:24;6.57;;;3.60;;
4963;SDS011;2497;47.410;9.740;2023-07-29T09:22:52;6.47;;;3.70;;
4963;SDS011;2497;47.410;9.740;2023-07-29T09:25:26;7.47;;;3.50;;
4963;SDS011;2497;47.410;9.740;2023-07-29T09:27:58;5.60;;;4.03;;
4963;SDS011;2497;47.410;9.740;2023-07-29T09:30:26;6.07;;;4.23;;
4963;SDS011;2497;47.410;9.740;2023-07-29T09:32:54;9.10;;;4.50;;
4963;SDS011;2497;47.410;9.740;2023-07-29T09:35:22;6.17;;;4.10;;
4963;SDS011;2497;47.410;9.740;2023-07-29T09:37:50;6.40;;;3.90;;
4963;SDS011;2497;47.410;9.740;2023-07-29T09:40:17;6.80;;;3.80;;
4963;SDS011;2497;47.410;9.740;2023-07-29T09:42:50;6.37;;;4.20;;
4963;SDS011;2497;47.410;9.740;2023-07-29T09:45:19;6.80;;;4.03;;
4963;SDS011;2497;47.410;9.740;2023-07-29T09:47:50;6.30;;;4.13;;
4963;SDS011;2497;47.410;9.740;2023-07-29T09:50:17;6.90;;;3.73;;
4963;SDS011;2497;47.410;9.740;2023-07-29T09:52:45;6.63;;;3.90;;
4963;SDS011;2497;47.410;9.740;2023-07-29T09:55:13;7.07;;;4.37;;
4963;SDS011;2497;47.410;9.740;2023-07-29T09:57:44;6.63;;;4.27;;
4963;SDS011;2497;47.410;9.740;2023-07-29T10:00:13;8.47;;;4.50;;
4963;SDS011;2497;47.410;9.740;2023-07-29T10:02:41;7.17;;;4.67;;
4963;SDS011;2497;47.410;9.740;2023-07-29T10:05:09;5.80;;;3.63;;
4963;SDS011;2497;47.410;9.740;2023-07-29T10:07:37;7.17;;;4.70;;
4963;SDS011;2497;47.410;9.740;2023-07-29T10:10:06;7.57;;;3.97;;
4963;SDS011;2497;47.410;9.740;2023-07-29T10:12:35;5.57;;;3.57;;
4963;SDS011;2497;47.410;9.740;2023-07-29T10:15:03;6.40;;;3.73;;
4963;SDS011;2497;47.410;9.740;2023-07-29T10:17:35;5.70;;;3.53;;
4963;SDS011;2497;47.410;9.740;2023-07-29T10:20:03;6.03;;;3.83;;
4963;SDS011;2497;47.410;9.740;2023-07-29T10:22:33;5.13;;;3.30;;
4963;SDS011;2497;47.410;9.740;2023-07-29T10:25:03;5.43;;;3.43;;
4963;SDS011;2497;47.410;9.740;2023-07-29T10:27:35;7.63;;;3.67;;
4963;SDS011;2497;47.410;9.740;2023-07-29T10:30:10;6.10;;;3.60;;
4963;SDS011;2497;47.410;9.740;2023-07-29T10:32:43;8.73;;;3.80;;
4963;SDS011;2497;47.410;9.740;2023-07-29T10:35:11;4.70;;;3.30;;
4963;SDS011;2497;47.410;9.740;2023-07-29T10:37:40;4.43;;;3.20;;
4963;SDS011;2497;47.410;9.740;2023-07-29T10:40:09;5.27;;;3.33;;
4963;SDS011;2497;47.410;9.740;2023-07-29T10:42:37;5.73;;;3.60;;
4963;SDS011;2497;47.410;9.740;2023-07-29T10:47:51;4.87;;;2.90;;
4963;SDS011;2497;47.410;9.740;2023-07-29T10:50:18;5.40;;;3.30;;
4963;SDS011;2497;47.410;9.740;2023-07-29T10:52:49;4.30;;;3.20;;
4963;SDS011;2497;47.410;9.740;2023-07-29T10:55:25;5.80;;;3.30;;
4963;SDS011;2497;47.410;9.740;2023-07-29T10:58:04;4.50;;;3.23;;
4963;SDS011;2497;47.410;9.740;2023-07-29T11:00:35;5.23;;;3.20;;
4963;SDS011;2497;47.410;9.740;2023-07-29T11:03:05;5.27;;;3.50;;
4963;SDS011;2497;47.410;9.740;2023-07-29T11:05:46;5.13;;;3.43;;
4963;SDS011;2497;47.410;9.740;2023-07-29T11:08:21;6.20;;;3.57;;
4963;SDS011;2497;47.410;9.740;2023-07-29T11:13:35;5.93;;;3.80;;
4963;SDS011;2497;47.410;9.740;2023-07-29T11:16:03;4.30;;;2.87;;
4963;SDS011;2497;47.410;9.740;2023-07-29T11:18:33;5.07;;;3.47;;
4963;SDS011;2497;47.410;9.740;2023-07-29T11:21:01;4.40;;;3.13;;
4963;SDS011;2497;47.410;9.740;2023-07-29T11:23:29;5.50;;;3.00;;
4963;SDS011;2497;47.410;9.740;2023-07-29T11:25:57;4.60;;;3.20;;
4963;SDS011;2497;47.410;9.740;2023-07-29T11:28:25;3.97;;;2.70;;
4963;SDS011;2497;47.410;9.740;2023-07-29T11:30:54;3.33;;;2.67;;
4963;SDS011;2497;47.410;9.740;2023-07-29T11:33:23;6.43;;;3.30;;
4963;SDS011;2497;47.410;9.740;2023-07-29T11:35:54;4.43;;;3.10;;
4963;SDS011;2497;47.410;9.740;2023-07-29T11:38:22;3.40;;;2.80;;
4963;SDS011;2497;47.410;9.740;2023-07-29T11:40:56;4.20;;;3.00;;
4963;SDS011;2497;47.410;9.740;2023-07-29T11:43:24;4.17;;;3.20;;
4963;SDS011;2497;47.410;9.740;2023-07-29T11:45:52;5.73;;;3.50;;
4963;SDS011;2497;47.410;9.740;2023-07-29T11:48:26;4.90;;;3.20;;
4963;SDS011;2497;47.410;9.740;2023-07-29T11:50:55;5.87;;;2.73;;
4963;SDS011;2497;47.410;9.740;2023-07-29T11:53:22;4.40;;;3.10;;
4963;SDS011;2497;47.410;9.740;2023-07-29T11:55:54;4.70;;;3.00;;
4963;SDS011;2497;47.410;9.740;2023-07-29T11:58:21;5.90;;;2.90;;
4963;SDS011;2497;47.410;9.740;2023-07-29T12:00:51;3.93;;;2.90;;
4963;SDS011;2497;47.410;9.740;2023-07-29T12:03:18;5.53;;;3.00;;
4963;SDS011;2497;47.410;9.740;2023-07-29T12:05:45;5.70;;;3.70;;
4963;SDS011;2497;47.410;9.740;2023-07-29T12:08:16;5.60;;;3.30;;
4963;SDS011;2497;47.410;9.740;2023-07-29T12:10:44;3.50;;;2.90;;
4963;SDS011;2497;47.410;9.740;2023-07-29T12:13:11;4.60;;;3.50;;
4963;SDS011;2497;47.410;9.740;2023-07-29T12:15:38;4.00;;;2.83;;
4963;SDS011;2497;47.410;9.740;2023-07-29T12:18:07;5.80;;;3.87;;
4963;SDS011;2497;47.410;9.740;2023-07-29T12:20:34;4.77;;;3.40;;
4963;SDS011;2497;47.410;9.740;2023-07-29T12:23:01;6.27;;;4.00;;
4963;SDS011;2497;47.410;9.740;2023-07-29T12:25:32;4.97;;;3.53;;
4963;SDS011;2497;47.410;9.740;2023-07-29T12:28:04;6.63;;;3.50;;
4963;SDS011;2497;47.410;9.740;2023-07-29T12:30:32;4.83;;;3.43;;
4963;SDS011;2497;47.410;9.740;2023-07-29T12:32:59;8.70;;;4.40;;
4963;SDS011;2497;47.410;9.740;2023-07-29T12:35:33;12.07;;;5.00;;
4963;SDS011;2497;47.410;9.740;2023-07-29T12:38:03;7.43;;;4.53;;
4963;SDS011;2497;47.410;9.740;2023-07-29T12:40:37;4.60;;;3.23;;
4963;SDS011;2497;47.410;9.740;2023-07-29T12:43:07;5.60;;;4.00;;
4963;SDS011;2497;47.410;9.740;2023-07-29T12:45:35;6.77;;;3.97;;
4963;SDS011;2497;47.410;9.740;2023-07-29T12:48:05;6.03;;;3.90;;
4963;SDS011;2497;47.410;9.740;2023-07-29T12:50:32;5.30;;;4.20;;
4963;SDS011;2497;47.410;9.740;2023-07-29T12:52:59;5.23;;;3.50;;
4963;SDS011;2497;47.410;9.740;2023-07-29T12:55:26;6.60;;;3.87;;
4963;SDS011;2497;47.410;9.740;2023-07-29T12:57:55;6.53;;;4.13;;
4963;SDS011;2497;47.410;9.740;2023-07-29T13:00:23;6.80;;;3.70;;
4963;SDS011;2497;47.410;9.740;2023-07-29T13:02:51;5.80;;;4.20;;
4963;SDS011;2497;47.410;9.740;2023-07-29T13:05:20;8.17;;;4.67;;
4963;SDS011;2497;47.410;9.740;2023-07-29T13:07:47;8.33;;;5.07;;
4963;SDS011;2497;47.410;9.740;2023-07-29T13:10:17;10.80;;;5.00;;
4963;SDS011;2497;47.410;9.740;2023-07-29T13:12:44;8.80;;;5.10;;
4963;SDS011;2497;47.410;9.740;2023-07-29T13:15:13;12.13;;;4.80;;
4963;SDS011;2497;47.410;9.740;2023-07-29T13:17:41;6.67;;;4.43;;
4963;SDS011;2497;47.410;9.740;2023-07-29T13:20:08;9.73;;;4.33;;
4963;SDS011;2497;47.410;9.740;2023-07-29T13:22:38;7.37;;;3.90;;
4963;SDS011;2497;47.410;9.740;2023-07-29T13:25:06;7.00;;;4.43;;
4963;SDS011;2497;47.410;9.740;2023-07-29T13:27:33;9.10;;;3.80;;
4963;SDS011;2497;47.410;9.740;2023-07-29T13:30:00;10.10;;;3.80;;
4963;SDS011;2497;47.410;9.740;2023-07-29T13:32:29;5.43;;;3.97;;
4963;SDS011;2497;47.410;9.740;2023-07-29T13:34:56;5.37;;;3.77;;
4963;SDS011;2497;47.410;9.740;2023-07-29T13:37:23;6.07;;;3.87;;
4963;SDS011;2497;47.410;9.740;2023-07-29T13:39:50;8.00;;;4.93;;
4963;SDS011;2497;47.410;9.740;2023-07-29T13:42:17;10.77;;;5.20;;
4963;SDS011;2497;47.410;9.740;2023-07-29T13:44:44;7.73;;;4.47;;
4963;SDS011;2497;47.410;9.740;2023-07-29T13:47:11;6.47;;;4.27;;
4963;SDS011;2497;47.410;9.740;2023-07-29T13:49:42;7.70;;;4.70;;
4963;SDS011;2497;47.410;9.740;2023-07-29T13:52:10;7.80;;;4.57;;
4963;SDS011;2497;47.410;9.740;2023-07-29T13:54:37;7.47;;;3.77;;
4963;SDS011;2497;47.410;9.740;2023-07-29T13:57:04;5.53;;;3.63;;
4963;SDS011;2497;47.410;9.740;2023-07-29T13:59:32;6.07;;;3.63;;
4963;SDS011;2497;47.410;9.740;2023-07-29T14:01:59;5.43;;;3.70;;
4963;SDS011;2497;47.410;9.740;2023-07-29T14:04:26;5.97;;;3.00;;
4963;SDS011;2497;47.410;9.740;2023-07-29T14:06:56;6.70;;;4.53;;
4963;SDS011;2497;47.410;9.740;2023-07-29T14:09:23;6.53;;;4.47;;
4963;SDS011;2497;47.410;9.740;2023-07-29T14:11:50;7.73;;;4.60;;
4963;SDS011;2497;47.410;9.740;2023-07-29T14:14:18;6.23;;;4.10;;
4963;SDS011;2497;47.410;9.740;2023-07-29T14:16:48;6.63;;;2.90;;
4963;SDS011;2497;47.410;9.740;2023-07-29T14:19:15;10.70;;;4.13;;
4963;SDS011;2497;47.410;9.740;2023-07-29T14:21:43;4.23;;;2.57;;
4963;SDS011;2497;47.410;9.740;2023-07-29T14:24:11;4.97;;;3.00;;
4963;SDS011;2497;47.410;9.740;2023-07-29T14:26:38;3.40;;;2.50;;
4963;SDS011;2497;47.410;9.740;2023-07-29T14:29:05;5.47;;;3.17;;
4963;SDS011;2497;47.410;9.740;2023-07-29T14:31:32;6.60;;;2.97;;
4963;SDS011;2497;47.410;9.740;2023-07-29T14:33:59;5.10;;;2.53;;
4963;SDS011;2497;47.410;9.740;2023-07-29T14:36:26;4.80;;;2.77;;
4963;SDS011;2497;47.410;9.740;2023-07-29T14:38:53;4.20;;;2.47;;
4963;SDS011;2497;47.410;9.740;2023-07-29T14:41:22;4.53;;;2.43;;
4963;SDS011;2497;47.410;9.740;2023-07-29T14:43:49;5.17;;;3.20;;
4963;SDS011;2497;47.410;9.740;2023-07-29T14:46:16;4.60;;;2.60;;
4963;SDS011;2497;47.410;9.740;2023-07-29T14:48:43;3.60;;;2.33;;
4963;SDS011;2497;47.410;9.740;2023-07-29T14:51:13;4.33;;;2.70;;
4963;SDS011;2497;47.410;9.740;2023-07-29T14:53:41;4.47;;;2.83;;
4963;SDS011;2497;47.410;9.740;2023-07-29T14:56:08;6.87;;;3.27;;
4963;SDS011;2497;47.410;9.740;2023-07-29T14:58:44;7.80;;;3.00;;
4963;SDS011;2497;47.410;9.740;2023-07-29T15:01:11;4.07;;;2.40;;
4963;SDS011;2497;47.410;9.740;2023-07-29T15:03:38;6.13;;;2.90;;
4963;SDS011;2497;47.410;9.740;2023-07-29T15:06:06;7.00;;;2.80;;
4963;SDS011;2497;47.410;9.740;2023-07-29T15:08:34;2.43;;;2.00;;
4963;SDS011;2497;47.410;9.740;2023-07-29T15:11:01;5.50;;;2.77;;
4963;SDS011;2497;47.410;9.740;2023-07-29T15:13:29;3.20;;;2.30;;
4963;SDS011;2497;47.410;9.740;2023-07-29T15:15:57;3.90;;;2.47;;
4963;SDS011;2497;47.410;9.740;2023-07-29T15:18:24;3.87;;;2.53;;
4963;SDS011;2497;47.410;9.740;2023-07-29T15:20:54;4.63;;;2.70;;
4963;SDS011;2497;47.410;9.740;2023-07-29T15:23:22;4.87;;;2.53;;
4963;SDS011;2497;47.410;9.740;2023-07-29T15:25:49;4.53;;;2.87;;
4963;SDS011;2497;47.410;9.740;2023-07-29T15:28:16;3.80;;;2.70;;
4963;SDS011;2497;47.410;9.740;2023-07-29T15:30:43;3.70;;;2.23;;